Terminal Aerodrome Forecast
Issued by NWS

Home | Current Version | Previous Version | Text Only | Print | Product List | Glossary On
Versions: 1 2 3 4 5 6 7 8 9 10 11 12 13 14 15 16 17 18 19 20 21 22 23 24 25 26 27 28 29 30 31 32 33 34 35 36
000
FTUS43 KMKX 121138
TAFUES
TAF
KUES 121138Z 1212/1312 18006KT P6SM SCT040 BKN060
     FM121400 20006KT P6SM SCT040 BKN080
     FM121600 21007KT P6SM VCSH SCT035 BKN080
     FM121900 24007KT P6SM VCTS SCT035CB BKN120
     FM130000 25005KT 3SM TSRA BKN030CB
     FM130500 26005KT 5SM BR VCTS BKN025CB
     FM131000 30004KT 5SM BR BKN040=

USA.gov is the U.S. government's official web portal to all federal, state and local government web resources and services.